createdAt,value
2023-03-17T00:00:41.657Z,63.56
2023-03-17T00:01:41.658Z,63.66
2023-03-17T00:02:41.649Z,63.66
2023-03-17T00:03:41.694Z,63.87
2023-03-17T00:04:41.597Z,63.76
2023-03-17T00:05:41.603Z,63.66
2023-03-17T00:06:41.588Z,63.66
2023-03-17T00:07:41.549Z,63.76
2023-03-17T00:08:41.564Z,63.87
2023-03-17T00:09:41.548Z,63.97
2023-03-17T00:10:41.518Z,64.07
2023-03-17T00:11:41.501Z,63.97
2023-03-17T00:12:41.518Z,63.97
2023-03-17T00:13:41.495Z,63.97
2023-03-17T00:14:41.479Z,63.76
2023-03-17T00:15:41.499Z,63.66
2023-03-17T00:16:41.437Z,63.87
2023-03-17T00:17:41.424Z,63.87
2023-03-17T00:18:41.465Z,63.97
2023-03-17T00:19:41.397Z,64.07
2023-03-17T00:20:41.388Z,64.17
2023-03-17T00:21:41.371Z,64.17
2023-03-17T00:22:41.380Z,64.28
2023-03-17T00:23:41.384Z,64.28
2023-03-17T00:24:41.339Z,64.38
2023-03-17T00:25:41.326Z,64.38
2023-03-17T00:26:41.319Z,64.38
2023-03-17T00:27:41.319Z,64.17
2023-03-17T00:28:41.356Z,64.28
2023-03-17T00:29:41.292Z,64.38
2023-03-17T00:30:41.263Z,64.48
2023-03-17T00:31:41.324Z,64.61
2023-03-17T00:32:41.258Z,64.69
2023-03-17T00:33:41.237Z,64.72
2023-03-17T00:34:41.222Z,64.69
2023-03-17T00:35:41.301Z,64.69
2023-03-17T00:36:41.175Z,64.72
2023-03-17T00:37:41.192Z,64.59
2023-03-17T00:38:41.193Z,64.38
2023-03-17T00:39:41.151Z,64.38
2023-03-17T00:40:41.158Z,64.48
2023-03-17T00:41:41.122Z,64.59
2023-03-17T00:42:41.104Z,64.69
2023-03-17T00:43:41.129Z,64.82
2023-03-17T00:44:41.083Z,65.03
2023-03-17T00:45:41.062Z,65.12
2023-03-17T00:46:41.237Z,65.12
2023-03-17T00:47:41.042Z,65.12
2023-03-17T00:48:41.067Z,65.12
2023-03-17T00:49:41.015Z,65.33
2023-03-17T00:50:40.987Z,65.23
2023-03-17T00:51:40.996Z,65.23
2023-03-17T00:52:40.966Z,65.12
2023-03-17T00:53:41.004Z,65.23
2023-03-17T00:54:40.943Z,65.33
2023-03-17T00:55:40.978Z,65.23
2023-03-17T00:56:40.927Z,65.03
2023-03-17T00:57:40.937Z,65.12
2023-03-17T00:58:40.906Z,65.03
2023-03-17T00:59:40.905Z,65.12
2023-03-17T01:00:40.903Z,65.03
2023-03-17T01:01:40.911Z,65.12
2023-03-17T01:02:40.848Z,65.12
2023-03-17T01:03:40.848Z,65.23
2023-03-17T01:04:40.811Z,65.23
2023-03-17T01:05:40.809Z,65.23
2023-03-17T01:06:40.785Z,65.23
2023-03-17T01:07:40.778Z,65.44
2023-03-17T01:08:40.864Z,65.54
2023-03-17T01:09:40.745Z,65.54
2023-03-17T01:10:40.751Z,65.64
2023-03-17T01:11:40.744Z,65.74
2023-03-17T01:12:40.713Z,65.84
2023-03-17T01:13:40.722Z,65.84
2023-03-17T01:14:40.696Z,65.95
2023-03-17T01:15:40.674Z,65.74
2023-03-17T01:16:40.752Z,65.64
2023-03-17T01:17:40.642Z,65.54
2023-03-17T01:18:40.717Z,65.54
2023-03-17T01:19:40.616Z,65.54
2023-03-17T01:20:40.625Z,65.54
2023-03-17T01:21:40.636Z,65.33
2023-03-17T01:22:40.583Z,65.23
2023-03-17T01:23:40.596Z,65.23
2023-03-17T01:24:40.559Z,65.23
2023-03-17T01:25:40.588Z,65.23
2023-03-17T01:26:40.543Z,65.23
2023-03-17T01:27:40.526Z,65.03
2023-03-17T01:28:40.548Z,65.12
2023-03-17T01:29:40.553Z,65.12
2023-03-17T01:30:40.472Z,65.23
2023-03-17T01:31:40.524Z,65.23
2023-03-17T01:32:40.475Z,65.44
2023-03-17T01:33:40.444Z,65.12
2023-03-17T01:34:40.448Z,65.12
2023-03-17T01:35:40.467Z,65.03
2023-03-17T01:36:40.398Z,64.92
2023-03-17T01:37:40.387Z,64.82
2023-03-17T01:38:40.382Z,65.03
2023-03-17T01:39:40.448Z,65.03
2023-03-17T01:40:40.355Z,65.23
2023-03-17T01:41:40.465Z,65.12
2023-03-17T01:42:40.328Z,65.23
2023-03-17T01:43:40.345Z,65.12
2023-03-17T01:44:40.292Z,65.23
2023-03-17T01:45:40.329Z,65.23
2023-03-17T01:46:40.278Z,65.23
2023-03-17T01:47:40.255Z,65.12
2023-03-17T01:48:40.280Z,65.03
2023-03-17T01:49:40.269Z,65.12
2023-03-17T01:50:40.228Z,65.12
2023-03-17T01:51:40.216Z,65.03
2023-03-17T01:52:40.208Z,65.03
2023-03-17T01:53:40.188Z,65.23
2023-03-17T01:54:40.230Z,65.23
2023-03-17T01:55:40.178Z,65.33
2023-03-17T01:56:40.139Z,65.23
2023-03-17T01:57:40.134Z,65.03
2023-03-17T01:58:40.119Z,64.72
2023-03-17T01:59:40.129Z,64.61
2023-03-17T02:00:40.163Z,64.61
2023-03-17T02:01:40.079Z,64.72
2023-03-17T02:02:40.062Z,64.61
2023-03-17T02:03:40.050Z,64.72
2023-03-17T02:04:40.141Z,64.72
2023-03-17T02:05:40.029Z,64.61
2023-03-17T02:06:55.056Z,64.51
2023-03-17T02:07:40.027Z,64.61
2023-03-17T02:08:39.990Z,64.72
2023-03-17T02:09:40.000Z,64.82
2023-03-17T02:10:39.977Z,64.92
2023-03-17T02:11:39.954Z,65.03
2023-03-17T02:12:39.943Z,65.03
2023-03-17T02:13:39.940Z,65.06
2023-03-17T02:14:39.961Z,65.06
2023-03-17T02:15:39.916Z,65.26
2023-03-17T02:16:39.958Z,65.26
2023-03-17T02:17:39.883Z,65.16
2023-03-17T02:18:39.857Z,65.16
2023-03-17T02:19:39.903Z,65.06
2023-03-17T02:20:39.848Z,65.16
2023-03-17T02:21:39.836Z,65.26
2023-03-17T02:22:39.805Z,65.26
2023-03-17T02:23:39.804Z,65.36
2023-03-17T02:24:39.805Z,65.26
2023-03-17T02:25:39.770Z,65.26
2023-03-17T02:26:39.774Z,65.26
2023-03-17T02:27:39.758Z,65.16
2023-03-17T02:28:39.749Z,65.06
2023-03-17T02:29:39.736Z,65.03
2023-03-17T02:30:39.748Z,64.95
2023-03-17T02:31:39.698Z,65.06
2023-03-17T02:32:39.721Z,65.06
2023-03-17T02:33:39.676Z,64.95
2023-03-17T02:34:39.681Z,64.82
2023-03-17T02:35:39.670Z,64.72
2023-03-17T02:36:39.702Z,65.06
2023-03-17T02:37:39.655Z,65.16
2023-03-17T02:38:39.642Z,65.36
2023-03-17T02:39:39.620Z,65.57
2023-03-17T02:40:39.573Z,65.67
2023-03-17T02:41:39.577Z,65.67
2023-03-17T02:42:39.559Z,65.80
2023-03-17T02:43:39.569Z,65.80
2023-03-17T02:44:39.549Z,65.91
2023-03-17T02:45:39.521Z,65.80
2023-03-17T02:46:39.512Z,65.67
2023-03-17T02:47:39.501Z,65.67
2023-03-17T02:48:39.485Z,65.57
2023-03-17T02:49:39.496Z,65.47
2023-03-17T02:50:39.452Z,65.47
2023-03-17T02:51:39.450Z,65.67
2023-03-17T02:52:39.426Z,65.67
2023-03-17T02:53:39.444Z,65.57
2023-03-17T02:54:39.406Z,65.47
2023-03-17T02:55:39.402Z,65.57
2023-03-17T02:56:39.379Z,65.80
2023-03-17T02:57:39.360Z,65.80
2023-03-17T02:58:39.377Z,65.91
2023-03-17T02:59:39.369Z,65.91
2023-03-17T03:00:39.335Z,66.01
2023-03-17T03:01:39.338Z,66.01
2023-03-17T03:02:39.320Z,65.91
2023-03-17T03:03:39.297Z,65.91
2023-03-17T03:04:39.337Z,66.11
2023-03-17T03:05:39.263Z,66.22
2023-03-17T03:06:39.249Z,66.52
2023-03-17T03:07:39.230Z,66.42
2023-03-17T03:08:39.246Z,66.31
2023-03-17T03:09:39.209Z,66.31
2023-03-17T03:10:39.191Z,66.31
2023-03-17T03:11:39.192Z,66.22
2023-03-17T03:12:39.169Z,66.11
2023-03-17T03:13:39.176Z,66.01
2023-03-17T03:14:39.151Z,66.01
2023-03-17T03:15:39.180Z,65.80
2023-03-17T03:16:39.137Z,65.91
2023-03-17T03:17:39.126Z,65.80
2023-03-17T03:18:39.105Z,65.60
2023-03-17T03:19:39.122Z,65.70
2023-03-17T03:20:39.055Z,65.91
2023-03-17T03:21:39.065Z,66.01
2023-03-17T03:22:39.052Z,65.91
2023-03-17T03:23:39.030Z,66.01
2023-03-17T03:24:39.058Z,66.01
2023-03-17T03:25:38.998Z,65.91
2023-03-17T03:26:38.976Z,66.01
2023-03-17T03:27:38.988Z,66.11
2023-03-17T03:28:38.954Z,65.91
2023-03-17T03:29:39.020Z,65.80
2023-03-17T03:30:38.930Z,65.60
2023-03-17T03:31:38.943Z,65.57
2023-03-17T03:32:38.987Z,65.60
2023-03-17T03:33:38.918Z,65.70
2023-03-17T03:34:38.917Z,65.60
2023-03-17T03:35:38.926Z,65.50
2023-03-17T03:36:38.856Z,65.50
2023-03-17T03:37:38.843Z,65.60
2023-03-17T03:38:38.834Z,65.50
2023-03-17T03:39:38.852Z,65.70
2023-03-17T03:40:38.806Z,65.60
2023-03-17T03:41:38.803Z,65.50
2023-03-17T03:42:38.784Z,65.50
2023-03-17T03:43:38.768Z,65.50
2023-03-17T03:44:38.769Z,65.50
2023-03-17T03:45:38.763Z,65.50
2023-03-17T03:46:38.757Z,65.60
2023-03-17T03:47:38.717Z,65.70
2023-03-17T03:48:38.694Z,65.70
2023-03-17T03:49:38.724Z,65.70
2023-03-17T03:50:38.672Z,65.80
2023-03-17T03:51:38.665Z,65.70
2023-03-17T03:52:38.646Z,65.39
2023-03-17T03:53:38.672Z,65.19
2023-03-17T03:54:38.644Z,65.06
2023-03-17T03:55:38.614Z,65.19
2023-03-17T03:56:38.618Z,65.39
2023-03-17T03:57:38.613Z,65.60
2023-03-17T03:58:38.584Z,65.70
2023-03-17T03:59:38.597Z,65.70
2023-03-17T04:00:38.552Z,65.70
2023-03-17T04:01:38.554Z,65.70
2023-03-17T04:02:38.571Z,65.80
2023-03-17T04:03:38.517Z,65.91
2023-03-17T04:04:38.541Z,66.01
2023-03-17T04:05:38.491Z,66.25
2023-03-17T04:06:38.465Z,66.25
2023-03-17T04:07:38.457Z,66.25
2023-03-17T04:08:38.463Z,66.35
2023-03-17T04:09:38.447Z,66.45
2023-03-17T04:10:38.418Z,66.55
2023-03-17T04:11:38.393Z,66.55
2023-03-17T04:12:38.390Z,66.45
2023-03-17T04:13:38.417Z,66.35
2023-03-17T04:14:38.356Z,66.25
2023-03-17T04:15:38.354Z,66.25
2023-03-17T04:16:38.333Z,66.35
2023-03-17T04:17:38.334Z,66.35
2023-03-17T04:18:38.380Z,66.22
2023-03-17T04:19:38.324Z,66.22
2023-03-17T04:20:38.282Z,66.11
2023-03-17T04:21:38.290Z,66.11
2023-03-17T04:22:38.266Z,66.01
2023-03-17T04:23:38.252Z,66.11
2023-03-17T04:24:38.234Z,65.91
2023-03-17T04:25:38.782Z,66.01
2023-03-17T04:26:38.250Z,66.11
2023-03-17T04:27:38.226Z,66.25
2023-03-17T04:28:38.172Z,66.25
2023-03-17T04:29:38.172Z,66.14
2023-03-17T04:30:38.178Z,66.11
2023-03-17T04:31:38.137Z,66.01
2023-03-17T04:32:38.156Z,66.25
2023-03-17T04:33:38.140Z,66.25
2023-03-17T04:34:38.102Z,66.14
2023-03-17T04:35:38.216Z,66.14
2023-03-17T04:36:38.084Z,66.25
2023-03-17T04:37:38.071Z,66.25
2023-03-17T04:38:38.111Z,66.35
2023-03-17T04:39:38.041Z,66.45
2023-03-17T04:40:38.026Z,66.35
2023-03-17T04:41:38.023Z,66.35
2023-03-17T04:42:38.035Z,66.45
2023-03-17T04:43:38.046Z,66.55
2023-03-17T04:44:37.976Z,66.66
2023-03-17T04:45:38.045Z,66.55
2023-03-17T04:46:37.949Z,66.66
2023-03-17T04:47:37.958Z,66.86
2023-03-17T04:48:37.960Z,66.76
2023-03-17T04:49:37.914Z,66.76
2023-03-17T04:50:37.942Z,66.55
2023-03-17T04:51:37.906Z,66.45
2023-03-17T04:52:37.878Z,66.45
2023-03-17T04:53:37.849Z,66.04
2023-03-17T04:54:37.865Z,66.04
2023-03-17T04:55:37.873Z,66.25
2023-03-17T04:56:37.861Z,66.45
2023-03-17T04:57:37.810Z,66.55
2023-03-17T04:58:37.800Z,66.66
2023-03-17T04:59:37.780Z,66.66
2023-03-17T05:00:37.835Z,66.79
2023-03-17T05:01:39.226Z,66.45
2023-03-17T05:02:37.809Z,66.55
2023-03-17T05:03:37.745Z,66.45
2023-03-17T05:04:37.721Z,66.55
2023-03-17T05:05:37.674Z,66.45
2023-03-17T05:06:37.720Z,66.55
2023-03-17T05:07:37.668Z,66.66
2023-03-17T05:08:37.683Z,66.66
2023-03-17T05:09:37.646Z,66.79
2023-03-17T05:10:37.668Z,66.89
2023-03-17T05:11:37.582Z,66.89
2023-03-17T05:12:37.570Z,67.00
2023-03-17T05:13:37.581Z,67.00
2023-03-17T05:14:37.620Z,67.10
2023-03-17T05:15:37.516Z,67.00
2023-03-17T05:16:37.582Z,66.89
2023-03-17T05:17:37.530Z,66.89
2023-03-17T05:18:37.501Z,66.69
2023-03-17T05:19:37.456Z,66.79
2023-03-17T05:20:37.479Z,66.69
2023-03-17T05:21:37.429Z,66.69
2023-03-17T05:22:37.431Z,66.55
2023-03-17T05:23:37.439Z,66.79
2023-03-17T05:24:37.503Z,67.00
2023-03-17T05:25:37.389Z,66.89
2023-03-17T05:26:37.375Z,66.89
2023-03-17T05:27:37.364Z,67.00
2023-03-17T05:28:37.412Z,67.00
2023-03-17T05:29:37.345Z,67.10
2023-03-17T05:30:37.399Z,66.89
2023-03-17T05:31:37.314Z,66.89
2023-03-17T05:32:37.380Z,67.00
2023-03-17T05:33:37.291Z,67.10
2023-03-17T05:34:37.271Z,67.30
2023-03-17T05:35:37.332Z,67.51
2023-03-17T05:36:37.246Z,67.65
2023-03-17T05:37:37.237Z,67.75
2023-03-17T05:38:37.260Z,67.75
2023-03-17T05:39:37.212Z,67.61
2023-03-17T05:40:37.222Z,67.51
2023-03-17T05:41:37.180Z,67.61
2023-03-17T05:42:37.198Z,67.61
2023-03-17T05:43:37.159Z,67.71
2023-03-17T05:44:37.151Z,67.71
2023-03-17T05:45:37.150Z,67.85
2023-03-17T05:46:37.202Z,67.95
2023-03-17T05:47:37.114Z,67.95
2023-03-17T05:48:37.096Z,68.05
2023-03-17T05:49:37.086Z,68.05
2023-03-17T05:50:37.088Z,67.85
2023-03-17T05:51:37.213Z,67.82
2023-03-17T05:52:37.048Z,67.61
2023-03-17T05:53:37.045Z,67.82
2023-03-17T05:54:37.028Z,67.71
2023-03-17T05:55:36.992Z,67.61
2023-03-17T05:56:36.996Z,67.71
2023-03-17T05:57:36.968Z,67.61
2023-03-17T05:58:37.013Z,67.71
2023-03-17T05:59:36.962Z,67.82
2023-03-17T06:00:36.956Z,67.82
2023-03-17T06:01:36.922Z,67.71
2023-03-17T06:02:36.975Z,67.61
2023-03-17T06:03:36.923Z,67.82
2023-03-17T06:04:36.891Z,67.82
2023-03-17T06:05:36.894Z,67.82
2023-03-17T06:06:36.863Z,67.92
2023-03-17T06:07:50.800Z,68.05
2023-03-17T06:08:36.855Z,67.82
2023-03-17T06:09:36.852Z,67.71
2023-03-17T06:10:36.829Z,67.61
2023-03-17T06:11:36.789Z,67.51
2023-03-17T06:12:36.785Z,67.30
2023-03-17T06:13:36.762Z,67.30
2023-03-17T06:14:36.763Z,67.10
2023-03-17T06:15:36.826Z,67.10
2023-03-17T06:16:36.765Z,67.20
2023-03-17T06:17:36.724Z,67.10
2023-03-17T06:18:36.706Z,67.20
2023-03-17T06:19:36.714Z,67.20
2023-03-17T06:20:37.201Z,67.10
2023-03-17T06:21:36.692Z,67.17
2023-03-17T06:22:36.670Z,67.10
2023-03-17T06:23:36.704Z,67.20
2023-03-17T06:24:36.635Z,66.96
2023-03-17T06:25:36.630Z,66.96
2023-03-17T06:26:36.650Z,67.07
2023-03-17T06:27:36.600Z,66.96
2023-03-17T06:28:36.588Z,66.86
2023-03-17T06:29:36.554Z,66.86
2023-03-17T06:30:38.798Z,66.96
2023-03-17T06:31:36.603Z,66.96
2023-03-17T06:32:36.536Z,66.86
2023-03-17T06:33:36.546Z,66.96
2023-03-17T06:34:36.524Z,66.76
2023-03-17T06:35:36.597Z,66.66
2023-03-17T06:36:38.584Z,66.55
2023-03-17T06:37:36.504Z,66.55
2023-03-17T06:38:36.480Z,66.76
2023-03-17T06:39:36.439Z,66.55
2023-03-17T06:40:36.464Z,66.52
2023-03-17T06:41:36.402Z,66.52
2023-03-17T06:42:36.398Z,66.52
2023-03-17T06:43:36.378Z,66.31
2023-03-17T06:44:36.399Z,66.01
2023-03-17T06:45:36.368Z,65.80
2023-03-17T06:46:36.469Z,65.91
2023-03-17T06:47:36.327Z,65.70
2023-03-17T06:48:36.331Z,65.67
2023-03-17T06:49:36.309Z,65.77
2023-03-17T06:50:36.381Z,65.57
2023-03-17T06:51:36.293Z,65.47
2023-03-17T06:52:36.295Z,65.57
2023-03-17T06:53:36.276Z,65.67
2023-03-17T06:54:36.265Z,65.47
2023-03-17T06:55:36.254Z,65.47
2023-03-17T06:56:36.265Z,65.47
2023-03-17T06:57:36.235Z,65.26
2023-03-17T06:58:36.257Z,65.26
2023-03-17T06:59:36.188Z,65.26
2023-03-17T07:00:36.166Z,65.47
2023-03-17T07:01:36.199Z,65.33
2023-03-17T07:02:36.141Z,65.23
2023-03-17T07:03:37.472Z,65.12
2023-03-17T07:04:36.155Z,65.03
2023-03-17T07:05:36.122Z,65.03
2023-03-17T07:06:36.103Z,64.92
2023-03-17T07:07:36.067Z,64.72
2023-03-17T07:08:36.058Z,64.61
2023-03-17T07:09:36.058Z,64.72
2023-03-17T07:10:36.129Z,64.61
2023-03-17T07:11:36.024Z,64.28
2023-03-17T07:12:36.014Z,63.97
2023-03-17T07:13:36.063Z,63.73
2023-03-17T07:14:36.019Z,63.43
2023-03-17T07:15:36.035Z,63.32
2023-03-17T07:16:36.009Z,63.43
2023-03-17T07:17:35.962Z,63.64
2023-03-17T07:18:36.011Z,63.53
2023-03-17T07:19:35.919Z,63.53
2023-03-17T07:20:35.936Z,63.43
2023-03-17T07:21:35.950Z,63.53
2023-03-17T07:22:35.887Z,63.43
2023-03-17T07:23:35.862Z,63.29
2023-03-17T07:24:35.870Z,63.29
2023-03-17T07:25:35.861Z,63.20
2023-03-17T07:26:35.872Z,63.20
2023-03-17T07:27:35.837Z,63.29
2023-03-17T07:28:35.825Z,62.99
2023-03-17T07:29:35.800Z,62.99
2023-03-17T07:30:35.780Z,62.88
2023-03-17T07:31:35.918Z,62.78
2023-03-17T07:32:36.050Z,62.55
2023-03-17T07:33:35.822Z,62.55
2023-03-17T07:34:35.801Z,62.55
2023-03-17T07:35:35.875Z,62.55
2023-03-17T07:36:35.968Z,62.14
2023-03-17T07:37:35.680Z,62.24
2023-03-17T07:38:35.686Z,61.93
2023-03-17T07:39:35.663Z,62.14
2023-03-17T07:40:35.692Z,62.52
2023-03-17T07:41:35.656Z,62.01
2023-03-17T07:42:35.642Z,61.60
2023-03-17T07:43:35.654Z,61.80
2023-03-17T07:44:35.612Z,62.01
2023-03-17T07:45:35.606Z,61.50
2023-03-17T07:46:35.595Z,61.40
2023-03-17T07:47:35.565Z,61.50
2023-03-17T07:48:35.591Z,61.67
2023-03-17T07:49:41.790Z,61.36
2023-03-17T07:50:35.563Z,61.47
2023-03-17T07:51:35.512Z,61.36
2023-03-17T07:52:35.509Z,61.06
2023-03-17T07:53:35.594Z,61.26
2023-03-17T07:54:35.489Z,61.16
2023-03-17T07:55:35.459Z,61.03
2023-03-17T07:56:35.462Z,60.93
2023-03-17T07:57:35.476Z,60.83
2023-03-17T07:58:35.435Z,60.83
2023-03-17T07:59:35.407Z,60.83
2023-03-17T08:00:35.829Z,60.83
2023-03-17T08:01:35.472Z,60.93
2023-03-17T08:02:35.399Z,60.83
2023-03-17T08:03:35.409Z,60.72
2023-03-17T08:04:35.360Z,60.93
2023-03-17T08:05:35.340Z,61.03
2023-03-17T08:06:35.869Z,61.13
2023-03-17T08:07:35.345Z,61.13
2023-03-17T08:08:35.305Z,60.62
2023-03-17T08:09:35.290Z,61.03
2023-03-17T08:10:35.812Z,60.69
2023-03-17T08:11:35.281Z,60.60
2023-03-17T08:12:35.259Z,60.19
2023-03-17T08:13:35.257Z,60.28
2023-03-17T08:14:35.267Z,60.39
2023-03-17T08:15:35.204Z,60.49
2023-03-17T08:16:35.261Z,60.08
2023-03-17T08:17:35.196Z,60.08
2023-03-17T08:18:35.207Z,60.08
2023-03-17T08:19:35.161Z,59.98
2023-03-17T08:20:35.564Z,60.08
2023-03-17T08:21:35.161Z,60.05
2023-03-17T08:22:35.139Z,59.85
2023-03-17T08:23:35.122Z,59.85
2023-03-17T08:24:35.144Z,59.75
2023-03-17T08:25:35.089Z,59.75
2023-03-17T08:26:35.092Z,59.85
2023-03-17T08:27:35.074Z,59.64
2023-03-17T08:28:35.054Z,59.64
2023-03-17T08:29:35.065Z,59.55
2023-03-17T08:30:35.704Z,59.64
2023-03-17T08:31:35.138Z,59.72
2023-03-17T08:32:35.072Z,59.52
2023-03-17T08:33:35.062Z,59.41
2023-03-17T08:34:34.976Z,59.21
2023-03-17T08:35:35.138Z,59.31
2023-03-17T08:36:34.984Z,59.31
2023-03-17T08:37:34.970Z,59.21
2023-03-17T08:38:34.985Z,59.31
2023-03-17T08:39:34.930Z,59.18
2023-03-17T08:40:34.997Z,59.28
2023-03-17T08:41:34.901Z,59.28
2023-03-17T08:42:34.887Z,58.87
2023-03-17T08:43:34.900Z,58.78
2023-03-17T08:44:34.850Z,58.78
2023-03-17T08:45:34.845Z,59.08
2023-03-17T08:46:34.903Z,59.08
2023-03-17T08:47:34.812Z,58.87
2023-03-17T08:48:34.942Z,59.18
2023-03-17T08:49:34.807Z,58.98
2023-03-17T08:50:34.942Z,58.98
2023-03-17T08:51:34.789Z,59.08
2023-03-17T08:52:34.798Z,58.78
2023-03-17T08:53:34.775Z,58.98
2023-03-17T08:54:34.734Z,58.98
2023-03-17T08:55:34.728Z,59.08
2023-03-17T08:56:34.700Z,59.08
2023-03-17T08:57:34.693Z,58.78
2023-03-17T08:58:34.711Z,58.64
2023-03-17T08:59:34.774Z,58.54
2023-03-17T09:00:34.675Z,58.64
2023-03-17T09:01:34.943Z,58.44
2023-03-17T09:02:34.667Z,58.21
2023-03-17T09:03:34.745Z,58.21
2023-03-17T09:04:34.630Z,57.87
2023-03-17T09:05:38.119Z,57.78
2023-03-17T09:06:34.588Z,57.06
2023-03-17T09:07:34.568Z,57.14
2023-03-17T09:08:34.638Z,56.73
2023-03-17T09:09:34.570Z,56.40
2023-03-17T09:10:34.529Z,56.16
2023-03-17T09:11:34.522Z,55.35
2023-03-17T09:12:34.504Z,55.55
2023-03-17T09:13:34.484Z,55.96
2023-03-17T09:14:42.825Z,55.66
2023-03-17T09:15:34.592Z,55.12
2023-03-17T09:16:34.577Z,54.59
2023-03-17T09:17:34.449Z,54.92
2023-03-17T09:18:34.412Z,54.79
2023-03-17T09:19:34.397Z,54.69
2023-03-17T09:20:34.384Z,54.49
2023-03-17T09:21:34.405Z,54.46
2023-03-17T09:22:34.369Z,53.96
2023-03-17T09:23:34.349Z,54.24
2023-03-17T09:24:34.361Z,54.13
2023-03-17T09:25:34.326Z,54.03
2023-03-17T09:26:34.318Z,53.83
2023-03-17T09:27:34.292Z,54.26
2023-03-17T09:28:34.285Z,54.36
2023-03-17T09:29:40.281Z,53.96
2023-03-17T09:30:34.254Z,54.16
2023-03-17T09:31:34.357Z,54.57
2023-03-17T09:32:34.325Z,54.69
2023-03-17T09:33:34.211Z,54.69
2023-03-17T09:34:34.212Z,54.77
2023-03-17T09:35:34.217Z,54.57
2023-03-17T09:36:34.203Z,54.36
2023-03-17T09:37:34.274Z,100.00
2023-03-17T09:38:34.143Z,54.49
2023-03-17T09:39:34.187Z,54.90
2023-03-17T09:40:34.678Z,54.66
2023-03-17T09:41:34.205Z,100.00
2023-03-17T09:42:34.083Z,53.96
2023-03-17T09:43:34.089Z,54.46
2023-03-17T09:44:34.057Z,54.66
2023-03-17T09:45:34.049Z,54.13
2023-03-17T09:46:34.112Z,54.54
2023-03-17T09:47:34.032Z,53.70
2023-03-17T09:48:34.010Z,53.47
2023-03-17T09:49:34.011Z,52.97
2023-03-17T09:50:33.996Z,52.89
2023-03-17T09:51:34.002Z,53.19
2023-03-17T09:52:33.957Z,53.39
2023-03-17T09:53:34.030Z,52.76
2023-03-17T09:54:33.958Z,53.06
2023-03-17T09:55:34.194Z,53.06
2023-03-17T09:56:33.924Z,53.30
2023-03-17T09:57:33.905Z,53.67
2023-03-17T09:58:33.872Z,53.27
2023-03-17T09:59:33.863Z,52.97
2023-03-17T10:00:33.848Z,53.19
2023-03-17T10:01:33.914Z,53.19
2023-03-17T10:02:33.831Z,53.70
2023-03-17T10:03:33.821Z,53.70
2023-03-17T10:04:33.804Z,53.27
2023-03-17T10:05:34.332Z,53.17
2023-03-17T10:06:33.778Z,53.04
2023-03-17T10:07:33.775Z,52.56
2023-03-17T10:08:33.745Z,52.86
2023-03-17T10:09:33.756Z,52.86
2023-03-17T10:10:33.729Z,52.97
2023-03-17T10:11:33.727Z,53.06
2023-03-17T10:12:33.687Z,52.66
2023-03-17T10:13:33.681Z,52.56
2023-03-17T10:14:33.664Z,52.84
2023-03-17T10:15:34.047Z,52.71
2023-03-17T10:16:33.729Z,52.31
2023-03-17T10:17:33.636Z,52.53
2023-03-17T10:18:33.647Z,52.53
2023-03-17T10:19:33.656Z,52.94
2023-03-17T10:20:33.602Z,53.25
2023-03-17T10:21:33.588Z,52.44
2023-03-17T10:22:33.607Z,52.84
2023-03-17T10:23:33.584Z,52.73
2023-03-17T10:24:33.532Z,52.84
2023-03-17T10:25:33.930Z,52.44
2023-03-17T10:26:33.500Z,52.33
2023-03-17T10:27:33.486Z,52.53
2023-03-17T10:28:33.506Z,52.71
2023-03-17T10:29:33.479Z,52.18
2023-03-17T10:30:33.948Z,51.88
2023-03-17T10:31:33.523Z,51.78
2023-03-17T10:32:41.082Z,51.86
2023-03-17T10:33:33.427Z,51.53
2023-03-17T10:34:33.605Z,51.02
2023-03-17T10:35:33.827Z,50.69
2023-03-17T10:36:33.373Z,50.37
2023-03-17T10:37:33.379Z,50.37
2023-03-17T10:38:33.337Z,49.71
2023-03-17T10:39:33.348Z,49.41
2023-03-17T10:40:33.645Z,48.98
2023-03-17T10:41:33.320Z,49.08
2023-03-17T10:42:33.355Z,48.75
2023-03-17T10:43:33.275Z,48.25
2023-03-17T10:44:33.265Z,48.35
2023-03-17T10:45:33.272Z,48.35
2023-03-17T10:46:33.274Z,48.19
2023-03-17T10:47:33.295Z,48.82
2023-03-17T10:48:33.231Z,49.43
2023-03-17T10:49:33.217Z,49.10
2023-03-17T10:50:33.688Z,49.22
2023-03-17T10:51:33.177Z,49.22
2023-03-17T10:52:33.190Z,49.33
2023-03-17T10:53:33.161Z,49.61
2023-03-17T10:54:33.137Z,49.22
2023-03-17T10:55:33.128Z,49.53
2023-03-17T10:56:33.195Z,49.81
2023-03-17T10:57:33.121Z,48.68
2023-03-17T10:58:33.109Z,48.75
2023-03-17T10:59:33.439Z,48.15
2023-03-17T11:00:33.310Z,48.15
2023-03-17T11:01:33.058Z,47.95
2023-03-17T11:02:33.083Z,48.02
2023-03-17T11:03:33.039Z,47.34
2023-03-17T11:04:33.008Z,47.85
2023-03-17T11:05:32.987Z,47.95
2023-03-17T11:06:33.002Z,47.52
2023-03-17T11:07:33.010Z,47.12
2023-03-17T11:08:32.990Z,47.42
2023-03-17T11:09:32.957Z,47.42
2023-03-17T11:10:33.175Z,47.74
2023-03-17T11:11:32.926Z,47.85
2023-03-17T11:12:32.914Z,47.52
2023-03-17T11:13:33.033Z,47.30
2023-03-17T11:14:32.881Z,47.82
2023-03-17T11:15:32.870Z,47.52
2023-03-17T11:16:32.917Z,47.95
2023-03-17T11:17:32.867Z,47.74
2023-03-17T11:18:33.291Z,48.15
2023-03-17T11:19:32.827Z,48.25
2023-03-17T11:20:33.111Z,48.35
2023-03-17T11:21:32.792Z,48.35
2023-03-17T11:22:32.763Z,48.13
2023-03-17T11:23:32.784Z,47.82
2023-03-17T11:24:33.545Z,48.15
2023-03-17T11:25:32.776Z,47.95
2023-03-17T11:26:32.725Z,47.95
2023-03-17T11:27:32.742Z,48.35
2023-03-17T11:28:32.736Z,48.22
2023-03-17T11:29:32.707Z,47.67
2023-03-17T11:30:33.229Z,47.47
2023-03-17T11:31:32.719Z,47.17
2023-03-17T11:32:32.713Z,47.17
2023-03-17T11:33:32.696Z,47.70
2023-03-17T11:34:32.642Z,47.07
2023-03-17T11:35:32.660Z,47.60
2023-03-17T11:36:32.583Z,48.00
2023-03-17T11:37:32.608Z,47.78
2023-03-17T11:38:32.595Z,46.97
2023-03-17T11:39:32.589Z,47.58
2023-03-17T11:40:33.006Z,47.27
2023-03-17T11:41:32.541Z,46.95
2023-03-17T11:42:32.512Z,47.23
2023-03-17T11:43:32.574Z,46.53
2023-03-17T11:44:32.486Z,46.40
2023-03-17T11:45:32.473Z,46.42
2023-03-17T11:46:32.465Z,46.53
2023-03-17T11:47:32.465Z,47.00
2023-03-17T11:48:32.474Z,45.59
2023-03-17T11:49:32.452Z,45.47
2023-03-17T11:50:32.674Z,44.75
2023-03-17T11:51:32.427Z,44.15
2023-03-17T11:52:32.391Z,44.97
2023-03-17T11:53:32.385Z,45.70
2023-03-17T11:54:32.416Z,46.26
2023-03-17T11:55:32.366Z,47.70
2023-03-17T11:56:32.353Z,47.90
2023-03-17T11:57:32.380Z,48.38
2023-03-17T11:58:32.327Z,47.15
2023-03-17T11:59:32.294Z,47.05
2023-03-17T12:00:32.717Z,47.27
2023-03-17T12:01:32.288Z,47.98
2023-03-17T12:02:32.249Z,47.27
2023-03-17T12:03:32.335Z,47.45
2023-03-17T12:04:32.293Z,47.15
2023-03-17T12:05:32.239Z,47.07
2023-03-17T12:06:32.214Z,47.90
2023-03-17T12:07:32.195Z,47.90
2023-03-17T12:08:32.203Z,48.55
2023-03-17T12:09:32.164Z,48.55
2023-03-17T12:10:32.544Z,48.85
2023-03-17T12:11:32.155Z,48.83
2023-03-17T12:12:32.120Z,48.53
2023-03-17T12:13:32.130Z,48.61
2023-03-17T12:14:32.102Z,48.71
2023-03-17T12:15:32.170Z,48.71
2023-03-17T12:16:32.078Z,48.58
2023-03-17T12:17:32.074Z,48.38
2023-03-17T12:18:32.080Z,47.88
2023-03-17T12:19:32.029Z,47.47
2023-03-17T12:20:32.344Z,47.78
2023-03-17T12:21:32.030Z,48.18
2023-03-17T12:22:31.990Z,47.96
2023-03-17T12:23:32.034Z,47.75
2023-03-17T12:24:31.956Z,47.67
2023-03-17T12:25:31.961Z,48.00
2023-03-17T12:26:31.936Z,48.30
2023-03-17T12:27:31.941Z,48.61
2023-03-17T12:28:31.935Z,48.61
2023-03-17T12:29:31.911Z,48.81
2023-03-17T12:30:32.121Z,48.41
2023-03-17T12:31:31.979Z,48.41
2023-03-17T12:32:31.908Z,48.49
2023-03-17T12:33:31.879Z,47.88
2023-03-17T12:34:31.839Z,48.08
2023-03-17T12:35:32.257Z,47.60
2023-03-17T12:36:31.847Z,48.00
2023-03-17T12:37:31.816Z,48.30
2023-03-17T12:38:31.796Z,48.21
2023-03-17T12:39:31.761Z,48.30
2023-03-17T12:40:32.308Z,48.10
2023-03-17T12:41:31.749Z,48.30
2023-03-17T12:42:31.739Z,48.41
2023-03-17T12:43:31.747Z,48.00
2023-03-17T12:44:31.706Z,48.10
2023-03-17T12:45:32.051Z,48.21
2023-03-17T12:46:31.737Z,48.21
2023-03-17T12:47:31.694Z,48.18
2023-03-17T12:48:31.668Z,48.18
2023-03-17T12:49:31.643Z,48.49
2023-03-17T12:50:31.627Z,48.38
2023-03-17T12:51:31.629Z,48.28
2023-03-17T12:52:31.586Z,47.88